createdAt,value
2022-09-14T00:02:48.361Z,12.60
2022-09-14T00:05:50.004Z,12.58
2022-09-14T00:08:54.089Z,12.56
2022-09-14T00:11:56.262Z,12.54
2022-09-14T00:14:58.029Z,12.49
2022-09-14T00:17:59.527Z,12.46
2022-09-14T00:21:06.987Z,12.44
2022-09-14T00:24:11.484Z,12.40
2022-09-14T00:27:13.289Z,12.38
2022-09-14T00:30:15.035Z,12.34
2022-09-14T00:33:16.678Z,12.32
2022-09-14T00:36:27.719Z,12.33
2022-09-14T00:39:29.463Z,12.33
2022-09-14T00:42:31.182Z,12.32
2022-09-14T00:45:32.983Z,12.34
2022-09-14T00:48:34.901Z,12.34
2022-09-14T00:51:41.590Z,12.39
2022-09-14T00:54:55.344Z,12.41
2022-09-14T00:57:57.181Z,12.42
2022-09-14T01:00:59.044Z,12.45
2022-09-14T01:04:00.856Z,12.45
2022-09-14T01:07:43.251Z,12.46
2022-09-14T01:11:19.781Z,12.45
2022-09-14T01:14:48.640Z,12.47
2022-09-14T01:18:18.925Z,12.47
2022-09-14T01:21:32.688Z,12.50
2022-09-14T01:24:55.892Z,12.47
2022-09-14T01:28:02.077Z,12.52
2022-09-14T01:31:12.102Z,12.52
2022-09-14T01:34:39.348Z,12.55
2022-09-14T01:37:47.392Z,12.54
2022-09-14T01:40:50.786Z,12.54
2022-09-14T01:44:05.594Z,12.54
2022-09-14T01:47:16.564Z,12.50
2022-09-14T01:50:41.458Z,12.49
2022-09-14T01:54:06.523Z,12.45
2022-09-14T01:57:31.952Z,12.45
2022-09-14T02:00:34.659Z,12.44
2022-09-14T02:04:04.295Z,12.42
2022-09-14T02:07:06.879Z,12.39
2022-09-14T02:10:13.535Z,12.37
2022-09-14T02:13:15.250Z,12.37
2022-09-14T02:16:18.241Z,12.39
2022-09-14T02:19:23.652Z,12.41
2022-09-14T02:22:27.419Z,12.40
2022-09-14T02:25:29.143Z,12.38
2022-09-14T02:28:31.036Z,12.35
2022-09-14T02:32:04.794Z,12.31
2022-09-14T02:35:22.230Z,12.27
2022-09-14T02:38:50.570Z,12.28
2022-09-14T02:42:20.673Z,12.24
2022-09-14T02:45:28.985Z,12.24
2022-09-14T02:49:08.382Z,12.21
2022-09-14T02:52:31.067Z,12.20
2022-09-14T02:55:41.812Z,12.24
2022-09-14T02:58:44.435Z,12.21
2022-09-14T03:01:46.199Z,12.17
2022-09-14T03:04:48.929Z,12.19
2022-09-14T03:07:50.619Z,12.19
2022-09-14T03:10:52.188Z,12.16
2022-09-14T03:13:53.791Z,12.16
2022-09-14T03:16:55.593Z,12.16
2022-09-14T03:19:57.184Z,12.14
2022-09-14T03:22:59.376Z,12.10
2022-09-14T03:26:01.185Z,12.09
2022-09-14T03:29:05.558Z,12.07
2022-09-14T03:32:10.986Z,12.06
2022-09-14T03:35:13.543Z,12.05
2022-09-14T03:38:15.317Z,12.06
2022-09-14T03:41:17.386Z,12.05
2022-09-14T03:44:19.065Z,12.01
2022-09-14T03:47:20.699Z,11.98
2022-09-14T03:50:22.341Z,11.93
2022-09-14T03:53:24.052Z,11.91
2022-09-14T03:56:25.738Z,11.85
2022-09-14T03:59:27.483Z,11.81
2022-09-14T04:02:29.859Z,11.78
2022-09-14T04:05:31.590Z,11.77
2022-09-14T04:08:36.190Z,11.73
2022-09-14T04:11:37.998Z,11.69
2022-09-14T04:14:39.534Z,11.60
2022-09-14T04:17:41.135Z,11.59
2022-09-14T04:20:42.710Z,11.54
2022-09-14T04:24:13.546Z,11.51
2022-09-14T04:27:06.518Z,11.47
2022-09-14T04:30:08.477Z,11.46
2022-09-14T04:33:10.138Z,11.46
2022-09-14T04:36:16.219Z,11.42
2022-09-14T04:39:18.067Z,11.38
2022-09-14T04:42:19.684Z,11.37
2022-09-14T04:45:21.365Z,11.39
2022-09-14T04:48:23.992Z,11.36
2022-09-14T04:51:29.614Z,11.38
2022-09-14T04:54:31.207Z,11.41
2022-09-14T04:57:32.871Z,11.41
2022-09-14T05:00:36.106Z,11.39
2022-09-14T05:03:39.043Z,11.43
2022-09-14T05:06:42.813Z,11.49
2022-09-14T05:09:44.494Z,11.52
2022-09-14T05:12:46.155Z,11.55
2022-09-14T05:15:47.911Z,11.59
2022-09-14T05:18:50.821Z,11.60
2022-09-14T05:21:54.010Z,11.68
2022-09-14T05:24:55.696Z,11.71
2022-09-14T05:27:57.463Z,11.67
2022-09-14T05:31:04.613Z,11.69
2022-09-14T05:34:06.383Z,11.75
2022-09-14T05:37:08.051Z,11.82
2022-09-14T05:40:10.418Z,11.80
2022-09-14T05:43:12.311Z,11.84
2022-09-14T05:46:22.245Z,11.82
2022-09-14T05:49:25.300Z,11.88
2022-09-14T05:52:30.076Z,12.00
2022-09-14T05:55:32.009Z,12.20
2022-09-14T05:58:36.314Z,12.33
2022-09-14T06:01:38.071Z,12.42
2022-09-14T06:04:39.900Z,12.51
2022-09-14T06:07:42.121Z,12.59
2022-09-14T06:10:44.341Z,12.61
2022-09-14T06:13:47.169Z,12.67
2022-09-14T06:16:49.050Z,12.77
2022-09-14T06:19:50.732Z,12.87
2022-09-14T06:22:52.519Z,12.91
2022-09-14T06:25:56.127Z,12.96
2022-09-14T06:28:57.829Z,12.99
2022-09-14T06:31:59.594Z,13.00
2022-09-14T06:35:01.272Z,13.00
2022-09-14T06:38:02.931Z,13.01
2022-09-14T06:41:07.091Z,12.95
2022-09-14T06:44:09.290Z,12.97
2022-09-14T06:47:10.909Z,13.03
2022-09-14T06:50:12.606Z,13.04
2022-09-14T06:53:14.393Z,13.05
2022-09-14T06:56:16.706Z,13.06
2022-09-14T06:59:18.683Z,13.10
2022-09-14T07:02:20.660Z,13.20
2022-09-14T07:05:22.920Z,13.36
2022-09-14T07:08:28.056Z,13.50
2022-09-14T07:11:29.953Z,13.64
2022-09-14T07:14:32.522Z,13.77
2022-09-14T07:17:36.375Z,13.86
2022-09-14T07:20:38.169Z,13.89
2022-09-14T07:23:42.048Z,14.02
2022-09-14T07:26:43.946Z,14.19
2022-09-14T07:29:45.563Z,14.36
2022-09-14T07:32:47.319Z,14.50
2022-09-14T07:35:49.187Z,14.64
2022-09-14T07:38:53.153Z,14.80
2022-09-14T07:41:55.630Z,14.99
2022-09-14T07:44:57.504Z,15.20
2022-09-14T07:47:59.435Z,15.38
2022-09-14T07:51:10.433Z,15.52
2022-09-14T07:54:14.829Z,15.55
2022-09-14T07:57:17.040Z,15.52
2022-09-14T08:00:18.951Z,15.47
2022-09-14T08:03:20.803Z,15.36
2022-09-14T08:06:25.864Z,15.29
2022-09-14T08:09:27.993Z,15.26
2022-09-14T08:12:29.809Z,15.35
2022-09-14T08:15:31.930Z,15.48
2022-09-14T08:18:35.731Z,15.67
2022-09-14T08:21:39.142Z,15.84
2022-09-14T08:24:44.027Z,16.08
2022-09-14T08:27:45.772Z,16.21
2022-09-14T08:30:47.489Z,16.36
2022-09-14T08:33:55.012Z,16.51
2022-09-14T08:36:56.848Z,16.67
2022-09-14T08:39:58.575Z,16.88
2022-09-14T08:43:04.151Z,17.21
2022-09-14T08:46:12.458Z,17.49
2022-09-14T08:49:52.250Z,17.74
2022-09-14T08:52:55.255Z,17.96
2022-09-14T08:56:02.830Z,18.12
2022-09-14T08:59:21.611Z,18.26
2022-09-14T09:02:32.273Z,18.33
2022-09-14T09:06:11.869Z,18.47
2022-09-14T09:09:39.631Z,18.69
2022-09-14T09:12:57.684Z,18.93
2022-09-14T09:16:05.814Z,19.15
2022-09-14T09:19:18.823Z,19.28
2022-09-14T09:22:23.999Z,19.42
2022-09-14T09:25:32.079Z,19.57
2022-09-14T09:28:34.433Z,19.59
2022-09-14T09:31:40.444Z,19.48
2022-09-14T09:35:24.801Z,19.42
2022-09-14T09:38:49.459Z,19.47
2022-09-14T09:42:21.921Z,19.60
2022-09-14T09:45:23.593Z,19.77
2022-09-14T09:48:28.645Z,19.98
2022-09-14T09:51:33.291Z,20.36
2022-09-14T09:54:35.667Z,20.60
2022-09-14T09:57:37.850Z,20.65
2022-09-14T10:00:39.509Z,20.68
2022-09-14T10:03:41.332Z,20.51
2022-09-14T10:06:50.066Z,20.33
2022-09-14T10:10:06.904Z,19.98
2022-09-14T10:13:47.270Z,19.74
2022-09-14T10:16:49.081Z,19.68
2022-09-14T10:19:52.972Z,19.71
2022-09-14T10:22:54.760Z,19.74
2022-09-14T10:26:14.937Z,19.74
2022-09-14T10:29:28.923Z,19.73
2022-09-14T10:32:32.477Z,19.78
2022-09-14T10:35:53.585Z,19.83
2022-09-14T10:39:03.985Z,19.83
2022-09-14T10:42:14.975Z,19.83
2022-09-14T10:45:31.558Z,19.78
2022-09-14T10:49:14.741Z,19.68
2022-09-14T10:52:30.350Z,19.59
2022-09-14T10:55:46.021Z,19.64
2022-09-14T10:59:12.327Z,19.74
2022-09-14T11:02:32.709Z,19.90
2022-09-14T11:05:53.112Z,20.10
2022-09-14T11:09:08.820Z,20.21
2022-09-14T11:12:26.739Z,20.25
2022-09-14T11:15:48.789Z,20.31
2022-09-14T11:18:51.457Z,20.22
2022-09-14T11:22:22.668Z,20.15
2022-09-14T11:25:33.550Z,20.19
2022-09-14T11:28:42.357Z,20.26
2022-09-14T11:32:20.454Z,20.23
2022-09-14T11:35:45.144Z,20.23
2022-09-14T11:38:53.379Z,20.15
2022-09-14T11:42:14.441Z,20.17
2022-09-14T11:45:22.832Z,19.96
2022-09-14T11:48:43.865Z,19.86
2022-09-14T11:52:04.200Z,19.76
2022-09-14T11:55:15.396Z,19.74
2022-09-14T11:58:31.216Z,19.72
2022-09-14T12:01:38.650Z,19.67
2022-09-14T12:05:09.426Z,19.59
2022-09-14T12:08:33.798Z,19.44
2022-09-14T12:11:36.512Z,19.29
2022-09-14T12:14:40.693Z,19.18
2022-09-14T12:17:43.110Z,19.06
2022-09-14T12:20:52.606Z,18.99
2022-09-14T12:23:57.740Z,18.95
2022-09-14T12:27:15.322Z,18.90
2022-09-14T12:30:56.216Z,18.86
2022-09-14T12:34:18.032Z,18.80
2022-09-14T12:37:37.674Z,18.71
2022-09-14T12:40:39.346Z,18.64
2022-09-14T12:43:49.841Z,18.59
2022-09-14T12:46:51.800Z,18.55
2022-09-14T12:49:57.037Z,18.44
2022-09-14T12:53:14.342Z,18.33
2022-09-14T12:56:23.933Z,18.29
2022-09-14T12:59:50.432Z,18.30
2022-09-14T13:03:18.952Z,18.26
2022-09-14T13:06:22.983Z,18.25
2022-09-14T13:09:28.502Z,18.28
2022-09-14T13:12:40.202Z,18.30
2022-09-14T13:15:52.720Z,18.28
2022-09-14T13:19:02.043Z,18.29
2022-09-14T13:22:18.474Z,18.30
2022-09-14T13:25:39.257Z,18.33
2022-09-14T13:28:45.377Z,18.36
2022-09-14T13:31:47.490Z,18.42
2022-09-14T13:34:49.315Z,18.40
2022-09-14T13:37:51.114Z,18.40
2022-09-14T13:40:55.377Z,18.39
2022-09-14T13:43:58.388Z,18.39
2022-09-14T13:47:05.730Z,18.39
2022-09-14T13:50:08.242Z,18.46
2022-09-14T13:53:43.859Z,18.49
2022-09-14T13:56:45.503Z,18.36
2022-09-14T14:00:14.982Z,18.32
2022-09-14T14:03:41.959Z,18.25
2022-09-14T14:06:45.945Z,18.23
2022-09-14T14:09:56.940Z,18.19
2022-09-14T14:13:00.640Z,18.15
2022-09-14T14:16:23.663Z,18.16
2022-09-14T14:19:28.504Z,18.14
2022-09-14T14:22:33.492Z,18.14
2022-09-14T14:25:43.471Z,18.14
2022-09-14T14:28:48.076Z,18.14
2022-09-14T14:31:50.432Z,18.15
2022-09-14T14:34:55.360Z,18.14
2022-09-14T14:37:57.383Z,18.11
2022-09-14T14:40:59.127Z,18.01
2022-09-14T14:44:01.508Z,17.92
2022-09-14T14:47:05.604Z,17.80
2022-09-14T14:50:15.775Z,17.69
2022-09-14T14:53:17.470Z,17.62
2022-09-14T14:56:19.790Z,17.64
2022-09-14T14:59:21.751Z,17.65
2022-09-14T15:02:23.431Z,17.64
2022-09-14T15:05:26.185Z,17.59
2022-09-14T15:08:28.071Z,17.61
2022-09-14T15:11:30.701Z,17.61
2022-09-14T15:14:32.495Z,17.57
2022-09-14T15:17:34.255Z,17.51
2022-09-14T15:20:36.020Z,17.44
2022-09-14T15:23:37.812Z,17.43
2022-09-14T15:26:39.920Z,17.46
2022-09-14T15:29:41.643Z,17.42
2022-09-14T15:32:43.484Z,17.47
2022-09-14T15:35:45.481Z,17.48
2022-09-14T15:38:47.197Z,17.51
2022-09-14T15:41:49.738Z,17.52
2022-09-14T15:44:51.610Z,17.52
2022-09-14T15:47:53.219Z,17.53
2022-09-14T15:50:57.680Z,17.58
2022-09-14T15:54:02.812Z,17.68
2022-09-14T15:57:10.446Z,17.78
2022-09-14T16:00:13.995Z,17.82
2022-09-14T16:03:15.764Z,17.73
2022-09-14T16:06:17.551Z,17.63
2022-09-14T16:09:22.222Z,17.63
2022-09-14T16:12:24.156Z,17.55
2022-09-14T16:15:25.941Z,17.52
2022-09-14T16:18:27.654Z,17.53
2022-09-14T16:21:31.020Z,17.49
2022-09-14T16:24:32.719Z,17.48
2022-09-14T16:27:34.821Z,17.44
2022-09-14T16:30:36.651Z,17.38
2022-09-14T16:33:40.271Z,17.30
2022-09-14T16:36:42.849Z,17.16
2022-09-14T16:39:44.803Z,17.03
2022-09-14T16:42:48.301Z,16.91
2022-09-14T16:46:04.392Z,16.82
2022-09-14T16:49:06.870Z,16.71
2022-09-14T16:52:08.668Z,16.64
2022-09-14T16:55:10.361Z,16.56
2022-09-14T16:58:12.552Z,16.47
2022-09-14T17:01:20.390Z,16.34
2022-09-14T17:04:23.785Z,16.24
2022-09-14T17:07:25.880Z,16.12
2022-09-14T17:10:27.700Z,16.07
2022-09-14T17:13:30.070Z,16.01
2022-09-14T17:16:32.497Z,15.88
2022-09-14T17:19:34.224Z,15.78
2022-09-14T17:22:37.172Z,15.66
2022-09-14T17:25:38.793Z,15.56
2022-09-14T17:28:44.416Z,15.46
2022-09-14T17:31:46.312Z,15.36
2022-09-14T17:34:48.049Z,15.27
2022-09-14T17:37:49.873Z,15.21
2022-09-14T17:40:51.886Z,15.13
2022-09-14T17:44:00.057Z,15.05
2022-09-14T17:47:01.826Z,14.98
2022-09-14T17:50:04.087Z,14.90
2022-09-14T17:53:05.841Z,14.83
2022-09-14T17:56:09.159Z,14.77
2022-09-14T17:59:13.926Z,14.73
2022-09-14T18:02:15.802Z,14.65
2022-09-14T18:05:17.916Z,14.58
2022-09-14T18:08:19.694Z,14.54
2022-09-14T18:11:21.992Z,14.45
2022-09-14T18:14:24.741Z,14.34
2022-09-14T18:17:26.403Z,14.21
2022-09-14T18:20:28.091Z,14.11
2022-09-14T18:23:30.641Z,14.09
2022-09-14T18:26:32.963Z,14.11
2022-09-14T18:29:34.525Z,14.05
2022-09-14T18:32:36.231Z,14.00
2022-09-14T18:35:38.394Z,13.89
2022-09-14T18:38:40.045Z,13.83
2022-09-14T18:41:41.897Z,13.74
2022-09-14T18:44:43.741Z,13.68
2022-09-14T18:47:45.923Z,13.61
2022-09-14T18:50:47.545Z,13.58
2022-09-14T18:53:49.352Z,13.59
2022-09-14T18:56:51.237Z,13.59
2022-09-14T18:59:53.033Z,13.61
2022-09-14T19:02:56.139Z,13.61
2022-09-14T19:05:58.149Z,13.60
2022-09-14T19:08:59.851Z,13.60
2022-09-14T19:12:02.148Z,13.65
2022-09-14T19:15:04.714Z,13.67
2022-09-14T19:18:08.555Z,13.67
2022-09-14T19:21:23.379Z,13.66
2022-09-14T19:24:30.602Z,13.64
2022-09-14T19:27:32.239Z,13.60
2022-09-14T19:30:36.372Z,13.58
2022-09-14T19:33:43.205Z,13.54
2022-09-14T19:36:47.670Z,13.48
2022-09-14T19:39:49.650Z,13.48
2022-09-14T19:42:51.846Z,13.43
2022-09-14T19:45:53.791Z,13.38
2022-09-14T19:48:55.774Z,13.29
2022-09-14T19:51:57.871Z,13.23
2022-09-14T19:54:59.643Z,13.17
2022-09-14T19:58:01.401Z,13.11
2022-09-14T20:01:03.925Z,13.06
2022-09-14T20:04:07.896Z,13.02
2022-09-14T20:07:10.382Z,13.00
2022-09-14T20:10:12.376Z,12.96
2022-09-14T20:13:14.268Z,12.92
2022-09-14T20:16:23.068Z,12.92
2022-09-14T20:19:32.646Z,12.88
2022-09-14T20:22:34.323Z,12.88
2022-09-14T20:25:36.187Z,12.89
2022-09-14T20:28:40.786Z,12.92
2022-09-14T20:31:42.520Z,12.93
2022-09-14T20:34:44.249Z,12.91
2022-09-14T20:37:46.019Z,12.91
2022-09-14T20:40:47.647Z,12.92
2022-09-14T20:43:49.400Z,12.90
2022-09-14T20:46:51.836Z,12.92
2022-09-14T20:49:53.914Z,12.98
2022-09-14T20:52:56.341Z,13.06
2022-09-14T20:56:03.178Z,13.20
2022-09-14T20:59:08.342Z,13.34
2022-09-14T21:02:10.380Z,13.47
2022-09-14T21:05:12.089Z,13.52
2022-09-14T21:08:14.411Z,13.54
2022-09-14T21:11:21.868Z,13.52
2022-09-14T21:14:23.611Z,13.52
2022-09-14T21:17:25.362Z,13.53
2022-09-14T21:20:27.080Z,13.53
2022-09-14T21:23:28.763Z,13.56
2022-09-14T21:26:33.208Z,13.63
2022-09-14T21:29:34.849Z,13.68
2022-09-14T21:32:36.374Z,13.73
2022-09-14T21:35:38.127Z,13.77
2022-09-14T21:38:40.199Z,13.82
2022-09-14T21:41:43.939Z,13.83
2022-09-14T21:44:45.574Z,13.84
2022-09-14T21:47:47.359Z,13.84
2022-09-14T21:50:48.918Z,13.83
2022-09-14T21:53:55.831Z,13.79
2022-09-14T21:56:57.499Z,13.79
2022-09-14T21:59:58.994Z,13.79
2022-09-14T22:03:00.770Z,13.77
2022-09-14T22:06:07.018Z,13.73
2022-09-14T22:09:08.532Z,13.66
2022-09-14T22:12:10.605Z,13.58
2022-09-14T22:15:12.375Z,13.53
2022-09-14T22:18:15.430Z,13.48
2022-09-14T22:21:17.811Z,13.46
2022-09-14T22:24:31.298Z,13.41
2022-09-14T22:27:35.366Z,13.36
2022-09-14T22:30:37.124Z,13.30
2022-09-14T22:33:38.940Z,13.24
2022-09-14T22:36:41.076Z,13.16
2022-09-14T22:39:42.749Z,13.11
2022-09-14T22:42:44.378Z,13.11
2022-09-14T22:45:46.643Z,13.06
2022-09-14T22:48:50.417Z,13.04
2022-09-14T22:51:52.128Z,13.02
2022-09-14T22:54:53.771Z,13.01
2022-09-14T22:57:55.331Z,13.08
2022-09-14T23:00:57.954Z,13.12
2022-09-14T23:04:09.083Z,13.18
2022-09-14T23:07:10.685Z,13.24
2022-09-14T23:10:12.239Z,13.21
2022-09-14T23:13:15.222Z,13.19
2022-09-14T23:16:19.742Z,13.18
2022-09-14T23:19:21.487Z,13.10
2022-09-14T23:22:24.319Z,13.04
2022-09-14T23:25:26.042Z,12.96
2022-09-14T23:28:27.532Z,12.89
2022-09-14T23:31:31.013Z,12.82
2022-09-14T23:34:32.781Z,12.74
2022-09-14T23:37:34.506Z,12.68
2022-09-14T23:40:35.914Z,12.65
2022-09-14T23:43:37.981Z,12.60
2022-09-14T23:46:39.993Z,12.56
2022-09-14T23:49:41.491Z,12.52
2022-09-14T23:52:43.274Z,12.49
2022-09-14T23:55:46.124Z,12.48
2022-09-14T23:58:47.893Z,12.44
